Milford, Utah Weather observations

Data are for observation ending at time listed.
 Day   Time    Ave.   Ave.  Ave.  Vector   Max.   Stn.    Total    Solar   Ave.  
  of    of     Air    Rel.  Wind   Wind    Wind   Baro.  Precip.   Rad.    Soil  
Year   Day     Temp.  Hum.  Speed  Dir.    Gust   Pres.                    Temp. 
2016   (MST)    F      %     mph   deg.    mph     mb.     in.     W/m2     F   
------------------------------------------------------------------------------
 119   11:20   45.6    81    3.9   165      7.5   835.2    0.00     418    51.7
 119   11:30   48.2    76    2.4   180      5.9   835.2    0.00     827    51.6
 119   11:40   51.6    67    1.6   182      4.5   835.4    0.00     923    51.8
 119   11:50   53.4    64    1.6   223      5.2   835.6    0.00     977    51.6
 119   12:00   52.3    56    2.2   205      5.6   835.8    0.00     724    51.7
 119   12:10   52.8    57    1.4   228      4.1   835.8    0.00     792    51.8
 119   12:20   54.2    54    2.4   140      5.3   835.9    0.00     890    51.7
 119   12:30   54.1    53    2.2    22      8.0   836.0    0.00     893    51.8
 119   12:40   52.4    60    2.9     8      8.0   836.0    0.00     269    51.7
 119   12:50   51.1    65    3.4     9     12.8   836.0    0.00     420    51.9
 119   13:00   52.3    62    2.9     4      8.3   836.0    0.00     513    51.9
 119   13:10   51.2    62    3.5    13      7.5   836.1    0.00     379    52.0
 119   13:20   51.5    60    2.4    14      5.7   836.1    0.00     438    52.0
 119   13:30   52.2    58    3.3    13      9.0   836.1    0.00     419    52.0
 119   13:40   51.9    58    4.1    13     10.0   836.1    0.00     291    52.1
 119   13:50   51.5    57    5.0    12     10.4   836.3    0.00     301    52.1
 119   14:00   50.2    64    9.2    23     15.3   836.3    0.00     305    52.2
 119   14:10   48.5    71    9.3    32     13.4   836.4    0.00     293    52.3
 119   14:20   47.0    73    8.9    38     14.2   836.3    0.00     190    52.4
 119   14:30   45.7    76    9.3    43     16.4   836.2    0.00     125    52.5
 119   14:40   45.0    82    6.2    35     11.3   836.0    0.00      82    52.6
 119   14:50   45.4    81    5.2    38      9.8   835.7    0.00     129    52.6
 119   15:00   46.0    79    5.3    44      9.3   835.6    0.00     191    52.6
 119   15:10   46.9    77    4.9    50      9.6   835.4    0.00     268    52.7
 119   15:20   48.3    71    4.2    52      7.4   835.4    0.00     562    52.7
 119   15:30   49.7    64    4.6    43      9.3   835.6    0.00     583    52.7
 119   15:40   49.9    63    5.3    46      9.4   835.9    0.00     485    52.7
 119   15:50   50.4    62    5.4    33      9.6   836.1    0.00     511    52.8
 119   16:00   51.1    61    5.2    27      9.4   836.3    0.00     478    52.8
 119   16:10   50.6    62    6.3    24     12.0   836.4    0.00     213    52.9
 119   16:20   50.6    62    6.5    29     10.5   836.5    0.00     232    53.0
 119   16:30   50.8    62    7.3    28     14.0   836.6    0.00     244    53.0
 119   16:40   50.7    62    7.7    18     13.7   836.7    0.00     136    53.0
 119   16:50   50.2    62    8.7    20     13.0   836.8    0.00      78    53.0
 119   17:00   48.5    69   10.2    17     15.5   836.9    0.00      39    53.1
 119   17:10   47.0    77    8.7    16     16.1   837.0    0.00      22    53.1
 119   17:20   46.0    81    7.7    13     15.5   836.9    0.01      19    53.1
 119   17:30   44.9    84    8.3    15     14.0   836.9    0.00      17    53.1
 119   17:40   44.6    87    7.6    14     11.8   836.9    0.01      29    53.1
 119   17:50   43.9    87    9.3    18     14.5   837.0    0.01      17    53.2
 119   18:00   42.8    89    8.7    19     14.9   837.0    0.03       3    53.2
 119   18:10   42.2    92    6.2    23     10.0   836.9    0.03       3    53.2
 119   18:20   42.2    92    5.6    24      8.5   836.9    0.01       4    53.2
 119   18:30   42.4    92    5.1    39      9.0   836.9    0.00      10    53.2
 119   18:40   42.5    91    4.1    46      6.7   836.9    0.00      23    53.2
 119   18:50   42.4    89    5.2    41      8.0   837.1    0.00      19    53.2
 119   19:00   42.0    88    4.1    40      6.7   837.1    0.00      13    53.2
 119   19:10   41.7    87    2.5    33      5.0   837.1    0.00       7    53.2
 119   19:20   41.7    87    2.1    25      3.3   837.2    0.00       3    53.2
 119   19:30   41.9    87    0.8    30      2.6   837.3    0.00       1    53.2
 119   19:40   41.6    90    0.0     0      0.0   837.4    0.00       0    53.2
 119   19:50   41.6    91    0.0     0      0.0   837.6    0.00       0    53.2
 119   20:00   41.8    91    0.0     0      0.0   837.6    0.00       0    53.2
 119   20:10   42.1    92    0.1   291      1.0   837.7    0.00       0    53.2
 119   20:20   42.4    92    0.0   281      1.0   837.8    0.00       0    53.2
 119   20:30   42.5    92    0.0     0      0.0   837.8    0.00       0    53.2
 119   20:40   42.5    92    0.0     0      0.0   837.9    0.00       0    53.1
 119   20:50   42.6    93    0.0     0      0.0   838.1    0.00       0    53.1
 119   21:00   42.5    92    0.0     0      0.0   838.2    0.00       0    53.1
 119   21:10   42.3    92    0.0     0      0.0   838.3    0.00       0    53.1
 119   21:20   42.3    92    0.0     0      0.0   838.3    0.00       0    53.1
 119   21:30   42.5    92    0.1   325      1.7   838.4    0.00       0    53.0
 119   21:40   42.5    91    0.2   295      2.0   838.5    0.00       0    53.0
 119   21:50   42.6    91    0.4   347      2.1   838.5    0.00       0    53.0
 119   22:00   42.6    91    0.5   339      2.5   838.6    0.00       0    53.0
 119   22:10   42.6    91    0.3     4      3.6   838.7    0.01       0    53.0
 119   22:20   42.5    92    0.8   340      2.4   838.7    0.00       0    53.0
 119   22:30   42.4    92    0.4   354      3.2   838.8    0.01       0    53.0
 119   22:40   42.4    92    0.7     1      3.1   838.8    0.00       0    53.0
 119   22:50   42.4    92    0.1   319      0.9   838.8    0.01       0    52.9
 119   23:00   42.4    93    0.0     0      0.0   838.8    0.00       0    52.9
 119   23:10   42.4    93    0.0     0      0.0   838.8    0.00       0    52.9
 119   23:20   42.5    93    0.0     0      0.0   838.8    0.01       0    52.9
 119   23:30   42.5    93    0.0     0      0.0   838.8    0.00       0    52.9
 119   23:40   42.5    93    0.0     0      0.0   838.8    0.00       0    52.9
 119   23:50   42.5    93    0.0     0      0.0   838.8    0.00       0    52.8
 120    0:00   42.5    93    0.0     0      0.0   838.8    0.00       0    52.8
 120    0:10   42.5    94    0.3    52      2.1   838.8    0.01       0    52.8
 120    0:20   42.4    94    0.2   194      1.8   838.9    0.00       0    52.8
 120    0:30   42.5    94    0.0     0      0.0   838.8    0.02       0    52.7
 120    0:40   42.3    94    0.0     0      0.0   838.8    0.00       0    52.7
 120    0:50   42.3    94    0.8    94      2.7   838.9    0.00       0    52.8
 120    1:00   42.1    94    0.7   102      3.2   838.9    0.00       0    52.8
 120    1:10   42.1    94    0.2   123      2.2   838.9    0.00       0    52.8
 120    1:20   42.0    94    0.0     0      0.0   839.0    0.00       0    52.7
 120    1:30   42.0    94    0.8   181      3.1   838.9    0.00       0    52.7
 120    1:40   42.1    94    0.5   192      2.6   838.9    0.00       0    52.7
 120    1:50   42.2    94    0.3   180      1.5   838.8    0.00       0    52.6
 120    2:00   42.2    94    0.3   210      1.9   838.8    0.00       0    52.6
 120    2:10   42.1    94    0.5   183      2.5   838.8    0.00       0    52.6
 120    2:20   42.0    94    0.5   227      1.8   838.8    0.00       0    52.6
 120    2:30   41.9    94    0.1   180      1.8   838.8    0.00       0    52.6
 120    2:40   41.6    94    1.4   217      2.3   838.8    0.00       0    52.6
 120    2:50   41.3    94    0.9   250      2.1   838.9    0.00       0    52.6
 120    3:00   41.1    95    0.3   238      1.4   838.9    0.00       0    52.5
 120    3:10   41.0    95    0.0     0      0.0   838.9    0.00       0    52.5
 120    3:20   40.8    95    0.3   242      2.8   839.1    0.00       0    52.4
 120    3:30   40.6    95    0.4   272      2.0   839.1    0.00       0    52.5
 120    3:40   40.5    95    0.6   230      2.3   839.1    0.00       0    52.5
 120    3:50   40.7    95    0.2   272      1.8   839.1    0.00       0    52.4
 120    4:00   40.7    95    0.3   275      1.2   839.2    0.00       0    52.4
 120    4:10   40.9    95    0.0     0      0.0   839.3    0.00       0    52.4
 120    4:20   40.6    94    0.0   343      0.9   839.3    0.00       0    52.4
 120    4:30   40.2    95    0.0     0      0.0   839.3    0.00       0    52.3
 120    4:40   39.9    94    0.0     0      0.0   839.4    0.00       0    52.4
 120    4:50   39.8    94    0.0     0      0.0   839.4    0.00       0    52.3
 120    5:00   40.0    94    0.0     0      0.0   839.5    0.00       0    52.3
 120    5:10   40.1    94    0.0     0      0.0   839.5    0.00       0    52.3
 120    5:20   39.9    94    0.0     0      0.0   839.5    0.00       0    52.3
 120    5:30   40.0    94    0.0     0      0.0   839.5    0.00       0    52.3
 120    5:40   40.4    95    0.2   196      1.5   839.4    0.00       2    52.3
 120    5:50   40.7    95    0.0     0      0.0   839.5    0.00       3    52.2
 120    6:00   40.6    95    0.0     0      0.0   839.5    0.00       6    52.2
 120    6:10   40.7    95    0.0     0      0.0   839.6    0.00      12    52.2
 120    6:20   40.6    95    0.6   253      1.5   839.7    0.00      27    52.2
 120    6:30   40.9    95    0.5   183      1.9   839.7    0.00      35    52.2
 120    6:40   40.9    94    1.7   167      3.1   839.8    0.00      46    52.2
 120    6:50   40.9    94    1.2   157      2.9   839.9    0.00      39    52.1
 120    7:00   41.1    94    1.0   170      2.5   840.1    0.00      68    52.1
 120    7:10   41.3    94    0.3   213      1.9   840.3    0.00      38    52.1
 120    7:20   41.4    94    0.2   184      2.0   840.4    0.00      41    52.1
 120    7:30   41.8    94    1.0   168      3.4   840.5    0.00      89    52.1
 120    7:40   42.2    94    1.6   187      3.1   840.6    0.00     110    52.0
 120    7:50   42.6    93    0.7   195      2.6   840.8    0.00      47    52.0
 120    8:00   42.5    93    1.4   163      2.9   841.0    0.00      72    52.0
 120    8:10   43.1    92    1.3   146      3.2   841.1    0.00     118    52.0
 120    8:20   43.6    91    2.3   156      3.5   841.2    0.00     128    52.0
 120    8:30   43.8    91    3.2   162      5.6   841.3    0.00     233    52.0
 120    8:40   45.1    88    3.6   148      6.3   841.3    0.00     409    51.9
 120    8:50   46.8    84    2.7   141      4.8   841.5    0.00     493    51.9
 120    9:00   48.4    80    2.0   123      4.4   841.7    0.00     545    51.8
 120    9:10   49.6    76    2.3   101      5.0   841.9    0.00     573    51.7
 120    9:20   48.8    73    2.6    80      5.2   842.0    0.00     545    51.8
 120    9:30   50.3    71    1.5   145      3.9   842.1    0.00     598    51.8
 120    9:40   51.3    68    1.9   148      4.2   842.2    0.00     610    51.8
 120    9:50   52.2    66    2.3    88      5.8   842.4    0.00     622    51.8
 120   10:00   51.5    65    3.1    42      7.3   842.4    0.00     684    51.9
 120   10:10   51.9    63    2.5    39      7.3   842.5    0.00     634    51.9
 120   10:20   52.3    57    5.2    29     10.7   842.6    0.00     833    51.8
 120   10:30   53.9    51    4.6    12     11.2   842.6    0.00     886    52.0
 120   10:40   53.7    52    7.5    28     13.0   842.7    0.00     842    51.9
 120   10:50   52.0    55    4.9    35     10.1   842.6    0.00     189    52.0
 120   11:00   52.1    54    4.2    16      9.7   842.5    0.00     441    52.0
 120   11:10   54.1    48    3.3    19      9.5   842.3    0.00     871    52.0

Return to Milford, Utah graphs page.


Western Regional Climate Center,wrcc@dri.edu